createdAt,value
2018-09-11T00:00:54.947Z,9.87
2018-09-11T00:03:23.424Z,8.60
2018-09-11T00:05:51.481Z,7.77
2018-09-11T00:08:19.564Z,6.87
2018-09-11T00:10:47.659Z,5.67
2018-09-11T00:13:15.768Z,8.63
2018-09-11T00:15:43.921Z,5.50
2018-09-11T00:18:12.055Z,6.70
2018-09-11T00:20:40.152Z,8.83
2018-09-11T00:23:09.352Z,8.87
2018-09-11T00:25:37.450Z,7.33
2018-09-11T00:28:05.581Z,8.27
2018-09-11T00:30:33.715Z,6.87
2018-09-11T00:33:01.809Z,8.20
2018-09-11T00:35:29.887Z,7.22
2018-09-11T00:37:57.963Z,6.43
2018-09-11T00:40:26.644Z,6.75
2018-09-11T00:42:54.815Z,6.83
2018-09-11T00:45:22.965Z,6.73
2018-09-11T00:47:51.033Z,8.70
2018-09-11T00:50:19.109Z,6.60
2018-09-11T00:52:47.212Z,10.60
2018-09-11T00:55:15.399Z,6.83
2018-09-11T00:57:44.225Z,8.08
2018-09-11T01:00:12.436Z,7.93
2018-09-11T01:02:40.524Z,6.93
2018-09-11T01:05:08.619Z,7.83
2018-09-11T01:07:36.705Z,6.83
2018-09-11T01:10:06.540Z,5.90
2018-09-11T01:12:35.699Z,7.57
2018-09-11T01:15:04.463Z,7.90
2018-09-11T01:17:32.981Z,8.43
2018-09-11T01:20:01.075Z,11.12
2018-09-11T01:22:29.164Z,6.67
2018-09-11T01:24:57.240Z,7.23
2018-09-11T01:27:25.783Z,7.63
2018-09-11T01:29:54.465Z,8.00
2018-09-11T01:32:22.584Z,9.37
2018-09-11T01:34:50.675Z,8.80
2018-09-11T01:37:18.751Z,7.20
2018-09-11T01:39:46.835Z,6.63
2018-09-11T01:42:14.939Z,8.58
2018-09-11T01:44:43.079Z,6.00
2018-09-11T01:47:12.532Z,6.40
2018-09-11T01:49:40.678Z,6.67
2018-09-11T01:52:08.755Z,6.97
2018-09-11T01:54:36.843Z,6.97
2018-09-11T01:57:05.152Z,10.10
2018-09-11T01:59:34.428Z,6.37
2018-09-11T02:02:02.548Z,7.10
2018-09-11T02:04:30.643Z,11.45
2018-09-11T02:06:58.910Z,8.90
2018-09-11T02:09:28.425Z,9.25
2018-09-11T02:11:56.532Z,6.67
2018-09-11T02:14:24.763Z,7.10
2018-09-11T02:16:52.867Z,8.13
2018-09-11T02:19:20.959Z,8.73
2018-09-11T02:21:49.045Z,7.90
2018-09-11T02:24:17.116Z,8.10
2018-09-11T02:26:45.318Z,9.30
2018-09-11T02:29:14.392Z,8.23
2018-09-11T02:31:42.944Z,7.40
2018-09-11T02:34:11.022Z,6.50
2018-09-11T02:36:39.088Z,10.43
2018-09-11T02:39:09.342Z,8.45
2018-09-11T02:41:37.555Z,9.07
2018-09-11T02:44:06.105Z,10.40
2018-09-11T02:46:34.845Z,9.70
2018-09-11T02:49:03.023Z,7.87
2018-09-11T02:51:31.108Z,5.47
2018-09-11T02:53:59.207Z,11.30
2018-09-11T02:56:27.416Z,8.70
2018-09-11T02:58:55.520Z,7.83
2018-09-11T03:01:24.460Z,13.53
2018-09-11T03:03:52.647Z,11.65
2018-09-11T03:06:20.928Z,9.98
2018-09-11T03:08:49.201Z,7.33
2018-09-11T03:11:18.607Z,12.25
2018-09-11T03:13:46.703Z,14.83
2018-09-11T03:16:15.296Z,7.27
2018-09-11T03:18:43.742Z,8.47
2018-09-11T03:21:11.836Z,7.87
2018-09-11T03:23:39.964Z,8.90
2018-09-11T03:26:08.091Z,13.73
2018-09-11T03:28:36.243Z,9.35
2018-09-11T03:31:04.427Z,9.97
2018-09-11T03:33:34.530Z,10.65
2018-09-11T03:36:02.700Z,11.93
2018-09-11T03:38:30.784Z,13.13
2018-09-11T03:40:58.888Z,12.50
2018-09-11T03:43:27.017Z,8.40
2018-09-11T03:45:55.129Z,11.50
2018-09-11T03:48:23.756Z,9.70
2018-09-11T03:50:52.183Z,10.35
2018-09-11T03:53:20.298Z,9.37
2018-09-11T03:55:48.994Z,8.80
2018-09-11T03:58:18.039Z,7.73
2018-09-11T04:00:46.245Z,10.43
2018-09-11T04:03:14.264Z,9.37
2018-09-11T04:05:42.341Z,8.40
2018-09-11T04:08:10.447Z,9.88
2018-09-11T04:10:38.586Z,10.87
2018-09-11T04:13:06.685Z,10.67
2018-09-11T04:15:34.834Z,7.80
2018-09-11T04:18:03.022Z,8.63
2018-09-11T04:20:31.157Z,10.23
2018-09-11T04:22:59.263Z,10.27
2018-09-11T04:25:27.390Z,10.05
2018-09-11T04:27:55.450Z,9.80
2018-09-11T04:30:23.640Z,9.13
2018-09-11T04:32:51.744Z,8.17
2018-09-11T04:35:20.551Z,8.27
2018-09-11T04:37:48.695Z,13.13
2018-09-11T04:40:16.801Z,9.00
2018-09-11T04:42:45.955Z,8.43
2018-09-11T04:45:14.139Z,8.03
2018-09-11T04:47:42.220Z,7.58
2018-09-11T04:50:10.328Z,9.17
2018-09-11T04:52:40.634Z,8.97
2018-09-11T04:55:08.738Z,8.73
2018-09-11T04:57:39.068Z,9.80
2018-09-11T05:00:07.487Z,22.30
2018-09-11T05:02:35.635Z,11.90
2018-09-11T05:05:05.010Z,9.03
2018-09-11T05:07:33.144Z,11.57
2018-09-11T05:10:01.255Z,13.07
2018-09-11T05:12:29.380Z,10.87
2018-09-11T05:14:57.483Z,9.60
2018-09-11T05:17:26.702Z,11.00
2018-09-11T05:19:56.700Z,9.43
2018-09-11T05:22:24.791Z,9.17
2018-09-11T05:24:53.036Z,10.43
2018-09-11T05:27:21.286Z,9.53
2018-09-11T05:29:49.927Z,8.00
2018-09-11T05:32:18.024Z,9.37
2018-09-11T05:34:46.103Z,10.00
2018-09-11T05:37:14.773Z,7.93
2018-09-11T05:39:42.860Z,8.50
2018-09-11T05:42:10.936Z,8.60
2018-09-11T05:44:39.007Z,9.53
2018-09-11T05:47:07.173Z,10.67
2018-09-11T05:49:35.238Z,8.53
2018-09-11T05:52:03.928Z,9.03
2018-09-11T05:54:32.557Z,8.30
2018-09-11T05:57:00.626Z,7.60
2018-09-11T05:59:28.887Z,9.43
2018-09-11T06:01:56.998Z,7.87
2018-09-11T06:04:25.075Z,7.33
2018-09-11T06:06:53.428Z,7.67
2018-09-11T06:09:21.510Z,10.90
2018-09-11T06:11:49.651Z,7.23
2018-09-11T06:14:17.907Z,5.47
2018-09-11T06:16:45.983Z,6.35
2018-09-11T06:19:14.140Z,5.27
2018-09-11T06:21:44.172Z,6.85
2018-09-11T06:24:12.241Z,5.17
2018-09-11T06:26:40.326Z,7.27
2018-09-11T06:29:09.272Z,5.72
2018-09-11T06:31:41.455Z,6.70
2018-09-11T06:34:09.528Z,4.62
2018-09-11T06:36:38.148Z,5.10
2018-09-11T06:39:07.982Z,6.58
2018-09-11T06:41:36.233Z,6.80
2018-09-11T06:44:04.987Z,7.07
2018-09-11T06:46:33.499Z,4.63
2018-09-11T06:49:02.286Z,5.20
2018-09-11T06:51:31.076Z,5.90
2018-09-11T06:53:59.192Z,7.97
2018-09-11T06:56:27.259Z,6.33
2018-09-11T06:58:55.343Z,6.87
2018-09-11T07:01:23.915Z,5.87
2018-09-11T07:03:52.149Z,5.47
2018-09-11T07:06:20.380Z,7.03
2018-09-11T07:08:48.911Z,6.50
2018-09-11T07:11:17.008Z,5.67
2018-09-11T07:13:45.080Z,6.93
2018-09-11T07:16:13.187Z,6.40
2018-09-11T07:18:41.280Z,5.60
2018-09-11T07:21:09.353Z,7.07
2018-09-11T07:23:37.440Z,4.83
2018-09-11T07:26:05.852Z,4.22
2018-09-11T07:28:35.519Z,6.42
2018-09-11T07:31:03.783Z,6.73
2018-09-11T07:33:32.096Z,4.77
2018-09-11T07:36:00.159Z,4.67
2018-09-11T07:38:28.315Z,5.67
2018-09-11T07:40:56.400Z,6.03
2018-09-11T07:43:25.157Z,7.77
2018-09-11T07:45:57.143Z,4.95
2018-09-11T07:48:43.359Z,6.10
2018-09-11T07:51:11.435Z,5.40
2018-09-11T07:53:40.030Z,5.63
2018-09-11T07:56:08.202Z,4.30
2018-09-11T07:58:36.291Z,4.43
2018-09-11T08:01:05.355Z,4.33
2018-09-11T08:03:34.407Z,6.80
2018-09-11T08:06:03.491Z,4.77
2018-09-11T08:08:31.928Z,5.03
2018-09-11T08:11:00.003Z,5.63
2018-09-11T08:13:28.076Z,3.47
2018-09-11T08:15:56.171Z,2.90
2018-09-11T08:18:24.735Z,3.08
2018-09-11T08:20:53.106Z,4.53
2018-09-11T08:23:21.417Z,4.17
2018-09-11T08:25:49.657Z,3.37
2018-09-11T08:28:18.646Z,3.67
2018-09-11T08:30:46.717Z,5.63
2018-09-11T08:33:14.800Z,4.27
2018-09-11T08:35:43.184Z,4.28
2018-09-11T08:38:11.472Z,5.40
2018-09-11T08:40:39.570Z,4.30
2018-09-11T08:43:07.619Z,4.00
2018-09-11T08:45:35.684Z,4.20
2018-09-11T08:48:04.408Z,2.77
2018-09-11T08:50:33.444Z,3.00
2018-09-11T08:53:04.144Z,4.83
2018-09-11T08:55:32.432Z,3.80
2018-09-11T08:58:00.511Z,3.27
2018-09-11T09:00:28.690Z,4.90
2018-09-11T09:02:56.796Z,3.37
2018-09-11T09:05:24.843Z,4.37
2018-09-11T09:07:53.511Z,4.67
2018-09-11T09:10:21.592Z,6.97
2018-09-11T09:12:49.686Z,4.97
2018-09-11T09:15:17.817Z,2.33
2018-09-11T09:17:45.907Z,3.30
2018-09-11T09:20:14.166Z,2.92
2018-09-11T09:22:42.250Z,2.93
2018-09-11T09:25:11.361Z,3.42
2018-09-11T09:27:39.530Z,2.53
2018-09-11T09:30:08.920Z,4.12
2018-09-11T09:32:36.995Z,2.77
2018-09-11T09:35:05.209Z,4.07
2018-09-11T09:37:33.296Z,4.10
2018-09-11T09:40:01.401Z,2.13
2018-09-11T09:42:29.625Z,3.25
2018-09-11T09:44:58.111Z,3.73
2018-09-11T09:47:26.192Z,3.67
2018-09-11T09:49:54.421Z,3.03
2018-09-11T09:52:22.869Z,4.50
2018-09-11T09:54:50.936Z,3.20
2018-09-11T09:57:19.016Z,4.30
2018-09-11T09:59:47.112Z,3.47
2018-09-11T10:02:23.757Z,4.30
2018-09-11T10:04:52.620Z,3.45
2018-09-11T10:07:21.407Z,2.50
2018-09-11T10:09:51.060Z,2.37
2018-09-11T10:12:19.207Z,3.07
2018-09-11T10:14:47.324Z,3.67
2018-09-11T10:17:15.368Z,5.03
2018-09-11T10:19:44.563Z,3.55
2018-09-11T10:22:12.943Z,3.37
2018-09-11T10:24:41.040Z,5.57
2018-09-11T10:27:09.378Z,2.00
2018-09-11T10:29:37.476Z,2.13
2018-09-11T10:32:05.564Z,2.40
2018-09-11T10:34:34.442Z,1.70
2018-09-11T10:37:06.137Z,1.98
2018-09-11T10:39:35.000Z,2.67
2018-09-11T10:42:03.066Z,2.47
2018-09-11T10:44:31.136Z,2.83
2018-09-11T10:46:59.195Z,4.07
2018-09-11T10:49:27.274Z,2.37
2018-09-11T10:51:55.482Z,3.93
2018-09-11T10:54:23.447Z,1.77
2018-09-11T10:56:51.568Z,2.10
2018-09-11T10:59:24.881Z,4.28
2018-09-11T11:01:53.134Z,2.37
2018-09-11T11:04:23.171Z,2.03
2018-09-11T11:06:51.276Z,4.23
2018-09-11T11:09:20.000Z,2.70
2018-09-11T11:11:48.290Z,3.47
2018-09-11T11:14:16.379Z,3.07
2018-09-11T11:16:44.614Z,2.37
2018-09-11T11:19:12.872Z,2.37
2018-09-11T11:21:42.281Z,2.45
2018-09-11T11:24:10.340Z,1.93
2018-09-11T11:26:38.429Z,3.53
2018-09-11T11:29:06.517Z,4.73
